createdAt,value
2022-12-15T00:00:21.021Z,-5.00
2022-12-15T00:03:06.711Z,-5.00
2022-12-15T00:05:52.548Z,-5.00
2022-12-15T00:08:38.175Z,-5.00
2022-12-15T00:11:24.014Z,-5.00
2022-12-15T00:14:09.417Z,-5.10
2022-12-15T00:16:55.514Z,-5.00
2022-12-15T00:19:41.556Z,-5.10
2022-12-15T00:22:26.976Z,-5.00
2022-12-15T00:25:12.943Z,-5.00
2022-12-15T00:27:58.672Z,-5.00
2022-12-15T00:30:44.377Z,-5.10
2022-12-15T00:33:35.743Z,-5.10
2022-12-15T00:36:21.945Z,-5.10
2022-12-15T00:38:49.225Z,-5.00
2022-12-15T00:41:18.165Z,-5.10
2022-12-15T00:43:46.988Z,-5.10
2022-12-15T00:46:32.925Z,-5.10
2022-12-15T00:49:01.028Z,-5.10
2022-12-15T00:51:47.106Z,-5.10
2022-12-15T00:54:33.026Z,-5.10
2022-12-15T00:57:18.570Z,-5.10
2022-12-15T01:00:04.207Z,-5.00
2022-12-15T01:02:50.045Z,-5.00
2022-12-15T01:05:35.848Z,-5.00
2022-12-15T01:08:21.424Z,-5.20
2022-12-15T01:11:07.009Z,-5.20
2022-12-15T01:13:52.675Z,-5.20
2022-12-15T01:16:38.305Z,-5.20
2022-12-15T01:19:26.845Z,-5.30
2022-12-15T01:21:54.060Z,-5.20
2022-12-15T01:24:21.166Z,-5.20
2022-12-15T01:26:48.401Z,-5.20
2022-12-15T01:29:15.471Z,-5.20
2022-12-15T01:31:44.065Z,-5.20
2022-12-15T01:34:11.257Z,-5.30
2022-12-15T01:36:38.360Z,-5.30
2022-12-15T01:39:05.496Z,-5.30
2022-12-15T01:41:32.755Z,-5.30
2022-12-15T01:44:21.270Z,-5.30
2022-12-15T01:46:57.645Z,-5.30
2022-12-15T01:49:28.670Z,-5.30
2022-12-15T01:52:00.771Z,-5.40
2022-12-15T01:54:51.492Z,-5.40
2022-12-15T01:57:29.649Z,-5.40
2022-12-15T02:00:02.010Z,-5.40
2022-12-15T02:02:34.514Z,-5.40
2022-12-15T02:05:06.784Z,-5.40
2022-12-15T02:07:33.970Z,-5.40
2022-12-15T02:10:05.257Z,-5.30
2022-12-15T02:12:51.112Z,-5.30
2022-12-15T02:15:18.110Z,-5.30
2022-12-15T02:18:02.594Z,-5.30
2022-12-15T02:20:50.475Z,-5.30
2022-12-15T02:23:35.598Z,-5.40
2022-12-15T02:26:30.086Z,-5.30
2022-12-15T02:29:09.005Z,-5.30
2022-12-15T02:31:50.658Z,-5.40
2022-12-15T02:34:44.082Z,-5.40
2022-12-15T02:37:18.858Z,-5.40
2022-12-15T02:39:46.067Z,-5.50
2022-12-15T02:42:13.933Z,-5.50
2022-12-15T02:44:51.807Z,-5.50
2022-12-15T02:47:59.465Z,-5.50
2022-12-15T02:50:58.252Z,-5.50
2022-12-15T02:54:05.568Z,-5.40
2022-12-15T02:56:44.275Z,-5.40
2022-12-15T02:59:33.189Z,-5.50
2022-12-15T03:02:06.109Z,-5.40
2022-12-15T03:04:33.794Z,-5.40
2022-12-15T03:07:06.624Z,-5.40
2022-12-15T03:09:34.206Z,-5.40
2022-12-15T03:12:01.343Z,-5.20
2022-12-15T03:14:28.551Z,-5.20
2022-12-15T03:16:56.066Z,-5.20
2022-12-15T03:19:23.866Z,-5.20
2022-12-15T03:21:51.093Z,-5.20
2022-12-15T03:24:18.268Z,-5.20
2022-12-15T03:26:48.633Z,-5.10
2022-12-15T03:29:19.202Z,-5.00
2022-12-15T03:31:49.693Z,-5.00
2022-12-15T03:34:17.887Z,-4.90
2022-12-15T03:36:45.010Z,-4.90
2022-12-15T03:39:12.425Z,-4.90
2022-12-15T03:41:39.574Z,-4.90
2022-12-15T03:44:06.898Z,-4.70
2022-12-15T03:46:34.073Z,-4.60
2022-12-15T03:49:01.232Z,-4.60
2022-12-15T03:51:28.368Z,-4.50
2022-12-15T03:53:55.540Z,-4.50
2022-12-15T03:56:22.604Z,-4.50
2022-12-15T03:58:49.611Z,-4.50
2022-12-15T04:01:47.965Z,-4.40
2022-12-15T04:04:15.455Z,-4.40
2022-12-15T04:06:42.552Z,-4.40
2022-12-15T04:09:09.636Z,-4.40
2022-12-15T04:11:36.735Z,-4.40
2022-12-15T04:14:03.779Z,-4.40
2022-12-15T04:16:30.782Z,-4.40
2022-12-15T04:19:16.151Z,-4.40
2022-12-15T04:21:43.290Z,-4.40
2022-12-15T04:24:29.097Z,-4.40
2022-12-15T04:27:14.721Z,-4.30
2022-12-15T04:30:00.282Z,-4.30
2022-12-15T04:32:50.084Z,-4.20
2022-12-15T04:35:36.275Z,-4.10
2022-12-15T04:38:22.599Z,-3.90
2022-12-15T04:41:08.021Z,-3.90
2022-12-15T04:43:53.543Z,-3.80
2022-12-15T04:46:39.294Z,-3.80
2022-12-15T04:49:24.848Z,-3.80
2022-12-15T04:52:10.319Z,-3.90
2022-12-15T04:54:55.870Z,-3.90
2022-12-15T04:57:41.584Z,-3.90
2022-12-15T05:00:28.228Z,-3.90
2022-12-15T05:03:18.148Z,-3.90
2022-12-15T05:06:03.987Z,-3.90
2022-12-15T05:08:50.217Z,-3.80
2022-12-15T05:11:37.172Z,-3.80
2022-12-15T05:14:23.697Z,-3.70
2022-12-15T05:17:09.369Z,-3.80
2022-12-15T05:19:54.831Z,-3.80
2022-12-15T05:22:40.260Z,-3.80
2022-12-15T05:25:26.644Z,-3.80
2022-12-15T05:28:12.745Z,-3.70
2022-12-15T05:30:58.258Z,-3.80
2022-12-15T05:33:25.333Z,-3.80
2022-12-15T05:35:52.449Z,-3.80
2022-12-15T05:38:19.663Z,-3.80
2022-12-15T05:40:46.799Z,-3.80
2022-12-15T05:43:13.992Z,-3.80
2022-12-15T05:45:41.106Z,-3.70
2022-12-15T05:48:08.221Z,-3.60
2022-12-15T05:50:35.350Z,-3.70
2022-12-15T05:53:06.508Z,-3.60
2022-12-15T05:55:33.577Z,-3.70
2022-12-15T05:58:00.632Z,-3.70
2022-12-15T06:00:27.590Z,-3.70
2022-12-15T06:02:54.755Z,-3.70
2022-12-15T06:05:21.836Z,-3.80
2022-12-15T06:07:48.945Z,-3.80
2022-12-15T06:10:16.135Z,-3.80
2022-12-15T06:12:43.190Z,-3.90
2022-12-15T06:15:10.537Z,-3.90
2022-12-15T06:17:37.597Z,-3.90
2022-12-15T06:20:07.922Z,-3.90
2022-12-15T06:22:35.010Z,-3.90
2022-12-15T06:25:02.132Z,-3.90
2022-12-15T06:27:29.266Z,-3.90
2022-12-15T06:29:56.452Z,-3.90
2022-12-15T06:32:23.485Z,-3.90
2022-12-15T06:34:50.559Z,-3.90
2022-12-15T06:37:18.394Z,-3.90
2022-12-15T06:39:48.470Z,-3.90
2022-12-15T06:42:15.910Z,-3.90
2022-12-15T06:44:42.946Z,-3.90
2022-12-15T06:47:10.196Z,-3.90
2022-12-15T06:49:37.378Z,-3.90
2022-12-15T06:52:04.431Z,-3.90
2022-12-15T06:54:31.556Z,-3.90
2022-12-15T06:56:58.685Z,-3.90
2022-12-15T06:59:25.648Z,-3.90
2022-12-15T07:01:52.875Z,-3.80
2022-12-15T07:04:20.206Z,-3.80
2022-12-15T07:06:47.358Z,-3.70
2022-12-15T07:09:18.470Z,-3.60
2022-12-15T07:11:49.264Z,-3.50
2022-12-15T07:14:16.541Z,-3.40
2022-12-15T07:16:43.608Z,-3.40
2022-12-15T07:19:12.872Z,-3.30
2022-12-15T07:21:41.217Z,-3.20
2022-12-15T07:24:13.008Z,-3.20
2022-12-15T07:26:41.341Z,-3.20
2022-12-15T07:29:08.453Z,-3.10
2022-12-15T07:31:35.466Z,-3.10
2022-12-15T07:34:02.475Z,-3.10
2022-12-15T07:36:29.537Z,-3.10
2022-12-15T07:39:01.191Z,-3.00
2022-12-15T07:41:28.688Z,-3.00
2022-12-15T07:43:56.870Z,-2.90
2022-12-15T07:46:24.306Z,-2.90
2022-12-15T07:48:51.891Z,-3.00
2022-12-15T07:51:20.867Z,-3.00
2022-12-15T07:53:50.208Z,-3.10
2022-12-15T07:56:19.299Z,-3.10
2022-12-15T07:58:46.385Z,-3.10
2022-12-15T08:01:14.736Z,-3.10
2022-12-15T08:03:41.922Z,-3.10
2022-12-15T08:06:12.997Z,-3.10
2022-12-15T08:08:41.176Z,-3.10
2022-12-15T08:11:10.738Z,-3.20
2022-12-15T08:16:26.816Z,-3.10
2022-12-15T08:18:54.161Z,-3.10
2022-12-15T08:21:21.272Z,-3.10
2022-12-15T08:23:48.534Z,-3.10
2022-12-15T08:26:18.769Z,-3.10
2022-12-15T08:28:46.516Z,-3.10
2022-12-15T08:31:17.677Z,-3.10
2022-12-15T08:33:46.333Z,-3.10
2022-12-15T08:36:17.061Z,-3.00
2022-12-15T08:38:46.017Z,-3.00
2022-12-15T08:41:21.156Z,-3.00
2022-12-15T08:43:49.614Z,-3.10
2022-12-15T08:46:23.430Z,-3.00
2022-12-15T08:48:51.017Z,-3.00
2022-12-15T08:51:18.263Z,-3.00
2022-12-15T08:53:46.651Z,-2.90
2022-12-15T08:56:17.822Z,-2.90
2022-12-15T08:58:47.148Z,-2.90
2022-12-15T09:01:23.643Z,-2.90
2022-12-15T09:03:53.962Z,-2.80
2022-12-15T09:06:28.814Z,-2.80
2022-12-15T09:08:59.278Z,-2.70
2022-12-15T09:11:27.868Z,-2.70
2022-12-15T09:13:55.123Z,-2.70
2022-12-15T09:16:22.653Z,-2.60
2022-12-15T09:18:54.442Z,-2.60
2022-12-15T09:21:26.426Z,-2.60
2022-12-15T09:24:00.095Z,-2.60
2022-12-15T09:26:30.377Z,-2.50
2022-12-15T09:28:57.853Z,-2.50
2022-12-15T09:31:36.195Z,-2.40
2022-12-15T09:34:03.885Z,-2.40
2022-12-15T09:36:37.355Z,-2.30
2022-12-15T09:39:04.475Z,-2.20
2022-12-15T09:41:34.864Z,-2.10
2022-12-15T09:44:16.469Z,-2.10
2022-12-15T09:47:11.423Z,-2.00
2022-12-15T09:49:57.229Z,-1.90
2022-12-15T09:52:26.512Z,-1.90
2022-12-15T09:54:53.815Z,-1.80
2022-12-15T09:57:40.809Z,-1.70
2022-12-15T10:00:30.846Z,-1.70
2022-12-15T10:03:28.159Z,-1.60
2022-12-15T10:06:16.728Z,-1.60
2022-12-15T10:09:01.148Z,-1.50
2022-12-15T10:12:11.833Z,-1.60
2022-12-15T10:14:50.451Z,-1.60
2022-12-15T10:17:45.688Z,-1.50
2022-12-15T10:20:22.631Z,-1.40
2022-12-15T10:22:51.243Z,-1.30
2022-12-15T10:25:29.667Z,-1.20
2022-12-15T10:28:45.397Z,-1.10
2022-12-15T10:31:43.905Z,-1.10
2022-12-15T10:34:36.463Z,-1.00
2022-12-15T10:37:03.854Z,-0.90
2022-12-15T10:39:43.057Z,-0.80
2022-12-15T10:42:27.113Z,-0.60
2022-12-15T10:44:57.697Z,-0.30
2022-12-15T10:47:28.024Z,-0.10
2022-12-15T10:49:56.677Z,0.00
2022-12-15T10:52:36.802Z,0.10
2022-12-15T10:55:37.331Z,0.00
2022-12-15T10:58:20.644Z,-0.10
2022-12-15T11:01:05.756Z,0.00
2022-12-15T11:03:40.381Z,0.20
2022-12-15T11:06:25.158Z,0.30
2022-12-15T11:08:56.650Z,0.40
2022-12-15T11:11:57.255Z,0.40
2022-12-15T11:14:42.125Z,0.30
2022-12-15T11:17:09.533Z,0.30
2022-12-15T11:20:03.573Z,0.30
2022-12-15T11:22:52.931Z,0.30
2022-12-15T11:25:37.606Z,0.30
2022-12-15T11:28:16.122Z,0.50
2022-12-15T11:30:52.559Z,0.60
2022-12-15T11:33:19.731Z,0.70
2022-12-15T11:35:46.763Z,0.80
2022-12-15T11:38:33.865Z,0.80
2022-12-15T11:41:40.847Z,0.80
2022-12-15T11:44:22.770Z,0.70
2022-12-15T11:46:58.651Z,0.80
2022-12-15T11:49:50.935Z,0.90
2022-12-15T11:52:43.856Z,1.10
2022-12-15T11:55:32.064Z,1.20
2022-12-15T11:58:40.080Z,1.30
2022-12-15T12:01:28.902Z,1.40
2022-12-15T12:04:24.865Z,1.50
2022-12-15T12:07:16.070Z,1.70
2022-12-15T12:10:27.226Z,1.80
2022-12-15T12:13:03.320Z,1.90
2022-12-15T12:15:57.944Z,1.90
2022-12-15T12:18:40.322Z,2.00
2022-12-15T12:21:17.501Z,2.10
2022-12-15T12:23:58.613Z,2.10
2022-12-15T12:26:52.093Z,2.20
2022-12-15T12:29:35.965Z,2.20
2022-12-15T12:32:51.430Z,2.20
2022-12-15T12:35:52.955Z,2.30
2022-12-15T12:38:30.206Z,2.30
2022-12-15T12:41:50.298Z,2.30
2022-12-15T12:44:32.625Z,2.30
2022-12-15T12:47:25.118Z,2.30
2022-12-15T12:50:03.926Z,2.30
2022-12-15T12:52:35.777Z,2.30
2022-12-15T12:55:29.048Z,2.30
2022-12-15T12:57:56.540Z,2.40
2022-12-15T13:00:32.349Z,2.40
2022-12-15T13:03:18.850Z,2.40
2022-12-15T13:05:50.691Z,2.40
2022-12-15T13:08:46.523Z,2.30
2022-12-15T13:11:55.438Z,2.30
2022-12-15T13:14:38.655Z,2.20
2022-12-15T13:17:39.120Z,2.20
2022-12-15T13:20:24.594Z,2.20
2022-12-15T13:22:53.059Z,2.10
2022-12-15T13:25:53.727Z,2.10
2022-12-15T13:28:42.669Z,2.00
2022-12-15T13:31:19.570Z,2.00
2022-12-15T13:33:55.723Z,1.90
2022-12-15T13:36:38.434Z,1.80
2022-12-15T13:39:28.832Z,1.80
2022-12-15T13:44:51.803Z,1.90
2022-12-15T13:47:18.984Z,1.90
2022-12-15T13:50:01.423Z,1.90
2022-12-15T13:53:16.541Z,2.00
2022-12-15T13:55:37.708Z,2.00
2022-12-15T13:58:16.898Z,2.00
2022-12-15T14:00:56.736Z,2.00
2022-12-15T14:03:24.915Z,2.00
2022-12-15T14:05:59.058Z,1.90
2022-12-15T14:08:29.855Z,1.90
2022-12-15T14:11:07.023Z,1.90
2022-12-15T14:13:46.020Z,1.90
2022-12-15T14:16:22.196Z,1.90
2022-12-15T14:19:18.685Z,1.80
2022-12-15T14:21:55.834Z,1.70
2022-12-15T14:24:42.132Z,1.70
2022-12-15T14:27:09.280Z,1.60
2022-12-15T14:29:36.591Z,1.50
2022-12-15T14:32:04.689Z,1.50
2022-12-15T14:34:41.884Z,1.40
2022-12-15T14:37:16.552Z,1.40
2022-12-15T14:39:50.379Z,1.30
2022-12-15T14:42:28.990Z,1.20
2022-12-15T14:48:21.661Z,1.10
2022-12-15T14:50:47.919Z,1.10
2022-12-15T14:53:17.930Z,1.00
2022-12-15T14:55:45.184Z,1.00
2022-12-15T14:58:35.616Z,0.90
2022-12-15T15:01:04.286Z,0.80
2022-12-15T15:03:15.529Z,1.20
2022-12-15T15:03:39.408Z,0.80
2022-12-15T15:06:12.801Z,0.70
2022-12-15T15:08:53.777Z,0.60
2022-12-15T15:11:37.269Z,0.60
2022-12-15T15:14:23.699Z,0.50
2022-12-15T15:17:17.033Z,0.50
2022-12-15T15:20:06.069Z,0.50
2022-12-15T15:22:41.652Z,0.40
2022-12-15T15:25:40.088Z,0.40
2022-12-15T15:28:19.351Z,0.30
2022-12-15T15:31:06.920Z,0.30
2022-12-15T15:33:34.030Z,0.20
2022-12-15T15:36:03.012Z,0.20
2022-12-15T15:38:38.807Z,0.20
2022-12-15T15:41:18.276Z,0.10
2022-12-15T15:43:46.612Z,0.10
2022-12-15T15:46:21.465Z,0.10
2022-12-15T15:48:53.915Z,0.00
2022-12-15T15:51:21.627Z,0.00
2022-12-15T15:53:48.768Z,0.00
2022-12-15T15:56:17.293Z,0.00
2022-12-15T15:58:44.755Z,0.00
2022-12-15T16:01:13.674Z,0.00
2022-12-15T16:03:41.658Z,0.00
2022-12-15T16:06:19.332Z,0.00
2022-12-15T16:08:51.990Z,0.00
2022-12-15T16:11:20.084Z,0.00
2022-12-15T16:13:47.480Z,0.00
2022-12-15T16:16:23.866Z,0.00
2022-12-15T16:18:51.035Z,0.00
2022-12-15T16:21:23.198Z,-0.10
2022-12-15T16:23:50.571Z,-0.10
2022-12-15T16:26:37.067Z,-0.10
2022-12-15T16:29:11.924Z,-0.10
2022-12-15T16:31:41.989Z,-0.10
2022-12-15T16:34:09.276Z,-0.20
2022-12-15T16:36:36.578Z,-0.20
2022-12-15T16:39:04.612Z,-0.20
2022-12-15T16:41:31.770Z,-0.20
2022-12-15T16:43:58.857Z,-0.20
2022-12-15T16:46:26.033Z,-0.20
2022-12-15T16:48:53.622Z,-0.30
2022-12-15T16:51:48.415Z,-0.30
2022-12-15T16:54:20.910Z,-0.30
2022-12-15T16:56:48.370Z,-0.30
2022-12-15T16:59:35.071Z,-0.30
2022-12-15T17:02:27.734Z,-0.20
2022-12-15T17:04:55.558Z,-0.20
2022-12-15T17:07:25.193Z,-0.20
2022-12-15T17:09:52.454Z,-0.30
2022-12-15T17:12:19.651Z,-0.30
2022-12-15T17:14:46.937Z,-0.30
2022-12-15T17:17:19.456Z,-0.30
2022-12-15T17:22:34.211Z,-0.40
2022-12-15T17:25:01.560Z,-0.40
2022-12-15T17:27:30.130Z,-0.50
2022-12-15T17:29:59.565Z,-0.50
2022-12-15T17:32:26.772Z,-0.50
2022-12-15T17:34:53.927Z,-0.50
2022-12-15T17:37:21.098Z,-0.50
2022-12-15T17:39:51.295Z,-0.50
2022-12-15T17:42:20.744Z,-0.50
2022-12-15T17:44:49.204Z,-0.40
2022-12-15T17:47:19.165Z,-0.40
2022-12-15T17:49:47.257Z,-0.40
2022-12-15T17:52:29.890Z,-0.40
2022-12-15T17:54:57.796Z,-0.40
2022-12-15T17:57:25.410Z,-0.40
2022-12-15T17:59:52.978Z,-0.40
2022-12-15T18:02:20.427Z,-0.40
2022-12-15T18:04:47.674Z,-0.40
2022-12-15T18:07:23.152Z,-0.40
2022-12-15T18:09:52.143Z,-0.40
2022-12-15T18:12:26.155Z,-0.50
2022-12-15T18:14:54.701Z,-0.50
2022-12-15T18:17:22.876Z,-0.60
2022-12-15T18:19:49.902Z,-0.60
2022-12-15T18:22:24.682Z,-0.70
2022-12-15T18:24:53.807Z,-0.70
2022-12-15T18:27:25.919Z,-0.70
2022-12-15T18:29:53.841Z,-0.70
2022-12-15T18:32:25.471Z,-0.80
2022-12-15T18:34:53.636Z,-0.80
2022-12-15T18:37:23.393Z,-0.80
2022-12-15T18:39:50.838Z,-0.80
2022-12-15T18:42:21.184Z,-0.70
2022-12-15T18:44:51.138Z,-0.70
2022-12-15T18:47:23.657Z,-0.70
2022-12-15T18:49:51.115Z,-0.70
2022-12-15T18:52:26.516Z,-0.70
2022-12-15T18:54:55.957Z,-0.70
2022-12-15T18:57:33.759Z,-0.70
2022-12-15T19:00:13.034Z,-0.70
2022-12-15T19:02:41.973Z,-0.70
2022-12-15T19:05:27.370Z,-0.70
2022-12-15T19:07:57.695Z,-0.70
2022-12-15T19:10:28.187Z,-0.70
2022-12-15T19:12:58.545Z,-0.70
2022-12-15T19:15:26.782Z,-0.70
2022-12-15T19:18:12.527Z,-0.70
2022-12-15T19:20:58.468Z,-0.80
2022-12-15T19:23:25.517Z,-0.80
2022-12-15T19:25:53.825Z,-0.80
2022-12-15T19:28:23.653Z,-0.80
2022-12-15T19:30:52.077Z,-0.90
2022-12-15T19:33:20.172Z,-0.90
2022-12-15T19:35:51.087Z,-0.90
2022-12-15T19:38:31.714Z,-0.90
2022-12-15T19:41:00.124Z,-0.90
2022-12-15T19:43:27.487Z,-0.90
2022-12-15T19:45:54.870Z,-0.80
2022-12-15T19:48:23.994Z,-0.80
2022-12-15T19:50:52.441Z,-0.80
2022-12-15T19:53:28.774Z,-0.80
2022-12-15T19:55:59.997Z,-0.80
2022-12-15T19:58:34.708Z,-0.80
2022-12-15T20:01:07.455Z,-0.70
2022-12-15T20:03:35.435Z,-0.80
2022-12-15T20:06:04.720Z,-0.70
2022-12-15T20:08:37.951Z,-0.70
2022-12-15T20:11:05.380Z,-0.70
2022-12-15T20:13:35.800Z,-0.70
2022-12-15T20:16:03.168Z,-0.70
2022-12-15T20:18:30.966Z,-0.70
2022-12-15T20:20:59.346Z,-0.70
2022-12-15T20:23:27.887Z,-0.80
2022-12-15T20:25:56.394Z,-0.80
2022-12-15T20:28:29.166Z,-0.80
2022-12-15T20:30:58.222Z,-0.90
2022-12-15T20:33:25.372Z,-0.90
2022-12-15T20:35:53.634Z,-0.90
2022-12-15T20:38:33.712Z,-1.00
2022-12-15T20:41:03.635Z,-1.00
2022-12-15T20:43:33.684Z,-1.10
2022-12-15T20:46:07.331Z,-1.10
2022-12-15T20:48:36.685Z,-1.10
2022-12-15T20:51:09.180Z,-1.10
2022-12-15T20:53:37.935Z,-1.10
2022-12-15T20:56:06.125Z,-1.10
2022-12-15T20:58:40.880Z,-1.20
2022-12-15T21:01:28.422Z,-1.20
2022-12-15T21:03:58.179Z,-1.20
2022-12-15T21:06:27.831Z,-1.30
2022-12-15T21:08:56.369Z,-1.30
2022-12-15T21:11:31.950Z,-1.30
2022-12-15T21:14:04.108Z,-1.30
2022-12-15T21:16:32.865Z,-1.30
2022-12-15T21:19:20.807Z,-1.20
2022-12-15T21:21:55.167Z,-1.20
2022-12-15T21:24:27.723Z,-1.30
2022-12-15T21:26:55.628Z,-1.20
2022-12-15T21:29:25.725Z,-1.20
2022-12-15T21:31:53.074Z,-1.20
2022-12-15T21:34:20.145Z,-1.20
2022-12-15T21:36:51.830Z,-1.20
2022-12-15T21:39:30.952Z,-1.20
2022-12-15T21:42:01.474Z,-1.20
2022-12-15T21:44:28.842Z,-1.20
2022-12-15T21:46:55.958Z,-1.20
2022-12-15T21:49:23.363Z,-1.20
2022-12-15T21:51:55.207Z,-1.30
2022-12-15T21:54:32.744Z,-1.30
2022-12-15T21:57:02.730Z,-1.30
2022-12-15T21:59:32.440Z,-1.40
2022-12-15T22:02:25.062Z,-1.40
2022-12-15T22:04:52.515Z,-1.50
2022-12-15T22:07:19.587Z,-1.50
2022-12-15T22:09:46.651Z,-1.50
2022-12-15T22:12:21.686Z,-1.60
2022-12-15T22:14:48.944Z,-1.70
2022-12-15T22:17:21.702Z,-1.80
2022-12-15T22:19:48.704Z,-1.80
2022-12-15T22:22:16.550Z,-1.80
2022-12-15T22:24:43.767Z,-1.80
2022-12-15T22:27:20.350Z,-1.80
2022-12-15T22:29:51.389Z,-1.80
2022-12-15T22:32:18.605Z,-1.70
2022-12-15T22:34:45.716Z,-1.70
2022-12-15T22:37:12.760Z,-1.80
2022-12-15T22:39:39.860Z,-1.70
2022-12-15T22:42:07.272Z,-1.70
2022-12-15T22:44:37.799Z,-1.70
2022-12-15T22:47:06.596Z,-1.70
2022-12-15T22:49:39.494Z,-1.70
2022-12-15T22:52:18.878Z,-1.60
2022-12-15T22:54:47.805Z,-1.60
2022-12-15T22:57:23.723Z,-1.60
2022-12-15T23:00:10.014Z,-1.60
2022-12-15T23:02:44.324Z,-1.50
2022-12-15T23:05:16.372Z,-1.50
2022-12-15T23:07:44.363Z,-1.40
2022-12-15T23:10:34.000Z,-1.40
2022-12-15T23:13:01.254Z,-1.40
2022-12-15T23:15:48.096Z,-1.30
2022-12-15T23:18:15.141Z,-1.30
2022-12-15T23:20:42.558Z,-1.20
2022-12-15T23:23:09.994Z,-1.20
2022-12-15T23:25:37.180Z,-1.20
2022-12-15T23:28:05.322Z,-1.20
2022-12-15T23:30:32.906Z,-1.10
2022-12-15T23:33:00.172Z,-1.10
2022-12-15T23:35:27.362Z,-1.10
2022-12-15T23:37:54.407Z,-1.10
2022-12-15T23:40:22.606Z,-1.00
2022-12-15T23:42:50.817Z,-1.00
2022-12-15T23:45:18.417Z,-1.00
2022-12-15T23:47:45.646Z,-1.00
2022-12-15T23:50:13.141Z,-0.90
2022-12-15T23:52:40.763Z,-1.00
2022-12-15T23:55:10.234Z,-0.90
2022-12-15T23:57:39.381Z,-0.90
